Grande Mariner — WCY6594 — position and weather

sailwx.info

Track history (hours):
 
Tides and Currents Weather Stations Pressure Air Temp Water Temp Dewpoint Dewpoint Depression Visibility Wind Speed Wind Dir Waves Ship Positions

Grande Mariner

Owner: AMERICAN CANADIAN CARIBBEAN LINE INC, WARREN, RI. More information available from US FCC via Universal Licensing System and Coast Guard Vessel Documentation Center.

Last reported at 2014-Oct-19 04:12 UTC. Time now 2014-Oct-22 03:17 UTC.
Position N 44°03' W 076°25'.

Length 56 m; draft 2 m.

Type: Passenger vessel. MMSI: 369024000.

Date/timePositionNaut miles runAvg speedWind from/ knotsBaromVisibWave heightAir tempDewpointWater temp
2014-Oct-19 04:12N 44°03' W 076°25'6 9.6
2014-Oct-19 03:33N 44°08' W 076°21'124 3.0
2014-Oct-17 10:18N 45°17' W 073°56'2 1.9
2014-Oct-17 09:27N 45°19' W 073°55'6 7.2
2014-Oct-17 08:33N 45°23' W 073°48'8 7.6
2014-Oct-17 07:33N 45°24' W 073°38'5 4.9
2014-Oct-17 06:33N 45°25' W 073°31'5 4.7
2014-Oct-17 05:33N 45°30' W 073°31'2 2.2
2014-Oct-17 04:33N 45°32' W 073°32'1 0.1
2014-Oct-16 16:31N 45°31' W 073°33'7 6.9
2014-Oct-16 15:33N 45°37' W 073°30'8 7.6
2014-Oct-16 14:33N 45°44' W 073°25'8 8.0
2014-Oct-16 13:33N 45°50' W 073°17'34 7.7
2014-Oct-16 09:07N 46°15' W 072°43'5 8.5
2014-Oct-16 08:33N 46°17' W 072°37'8 8.1
2014-Oct-16 07:33N 46°22' W 072°28'8 8.2
2014-Oct-16 06:33N 46°26' W 072°18'  
2014-Oct-13 00:28N 46°26' W 072°19'1111.8
2014-Oct-12 23:34N 46°20' W 072°31'1410.8
2014-Oct-12 22:15N 46°13' W 072°49'2210.8
2014-Oct-12 20:15N 45°58' W 073°12'811.9
2014-Oct-12 19:33N 45°51' W 073°17'1212.1
2014-Oct-12 18:34N 45°41' W 073°27'1211.7
2014-Oct-12 17:33N 45°30' W 073°33'0 0.0
2014-Oct-12 16:33N 45°30' W 073°33'0 0.0
2014-Oct-12 15:33N 45°30' W 073°33'0 0.0
2014-Oct-12 14:33N 45°30' W 073°33'0 0.0
2014-Oct-12 13:33N 45°30' W 073°33'0 0.0
2014-Oct-12 12:33N 45°30' W 073°33'0 0.0
2014-Oct-12 11:33N 45°30' W 073°33'0 0.0
2014-Oct-12 10:33N 45°30' W 073°33'0 0.0
2014-Oct-12 09:33N 45°30' W 073°33'0 0.0
2014-Oct-12 08:33N 45°30' W 073°33'0 0.0
2014-Oct-12 07:33N 45°30' W 073°33'0 0.0
2014-Oct-12 06:33N 45°30' W 073°33'0 0.0
2014-Oct-12 05:33N 45°30' W 073°33'0 0.0
2014-Oct-12 04:30N 45°30' W 073°33'0 0.0
2014-Oct-12 03:33N 45°30' W 073°33'0 0.0
2014-Oct-12 02:33N 45°30' W 073°33'0 0.0
2014-Oct-12 01:33N 45°30' W 073°33'0 0.0
2014-Oct-12 00:33N 45°30' W 073°33'0 0.0
2014-Oct-11 23:33N 45°30' W 073°33'0 0.0
2014-Oct-11 22:33N 45°30' W 073°33'0 0.0
2014-Oct-11 21:33N 45°30' W 073°33'0 0.0
2014-Oct-11 20:33N 45°30' W 073°33'0 0.0
2014-Oct-11 19:33N 45°30' W 073°33'0 0.0
2014-Oct-11 18:33N 45°30' W 073°33'0 0.0
2014-Oct-11 17:33N 45°30' W 073°33'0 0.0
2014-Oct-11 16:33N 45°30' W 073°33'0 0.0
2014-Oct-11 15:33N 45°30' W 073°33'0 0.0
2014-Oct-11 14:30N 45°30' W 073°33'0 0.0
2014-Oct-11 13:33N 45°30' W 073°33'0 0.0
2014-Oct-11 12:33N 45°30' W 073°33'0 0.0
2014-Oct-11 11:33N 45°30' W 073°33'0 0.0
2014-Oct-11 10:33N 45°30' W 073°33'0 0.0
2014-Oct-11 09:33N 45°30' W 073°33'0 0.0
2014-Oct-11 08:33N 45°30' W 073°33'0 0.0
2014-Oct-11 07:33N 45°30' W 073°33'0 0.0
2014-Oct-11 06:33N 45°30' W 073°33'0 0.0
2014-Oct-11 05:33N 45°30' W 073°33'0 0.0
2014-Oct-11 04:33N 45°30' W 073°33'0 0.0
2014-Oct-11 03:33N 45°30' W 073°33'0 0.0
2014-Oct-10 21:33N 45°30' W 073°33'0 0.0
2014-Oct-10 20:33N 45°30' W 073°33'0 0.0
2014-Oct-10 19:33N 45°30' W 073°33'0 0.0
2014-Oct-10 18:33N 45°30' W 073°33'0 0.0
2014-Oct-10 17:33N 45°30' W 073°33'0 0.0
2014-Oct-10 16:33N 45°30' W 073°33'0 0.0
2014-Oct-10 15:33N 45°30' W 073°33'0 0.0
2014-Oct-10 14:33N 45°30' W 073°33'0 0.0
2014-Oct-10 13:33N 45°30' W 073°33'0 0.0
2014-Oct-10 12:33N 45°30' W 073°33'0 0.0
2014-Oct-10 11:33N 45°30' W 073°33'0 0.0
2014-Oct-10 10:33N 45°30' W 073°33'0 0.0
2014-Oct-10 09:33N 45°30' W 073°33'0 0.0
2014-Oct-10 08:33N 45°30' W 073°33'0 0.0
2014-Oct-10 07:33N 45°30' W 073°33'0 0.0
2014-Oct-10 06:33N 45°30' W 073°33'0 0.0
2014-Oct-10 05:33N 45°30' W 073°33'0 0.0
2014-Oct-10 04:33N 45°30' W 073°33'0 0.0
2014-Oct-10 03:33N 45°30' W 073°33'0 0.0
2014-Oct-10 02:33N 45°30' W 073°33'0 0.0
2014-Oct-10 01:33N 45°30' W 073°33'0 0.0
2014-Oct-09 22:09N 45°30' W 073°33'0 0.0
2014-Oct-09 21:33N 45°30' W 073°33'0 0.0
2014-Oct-09 20:33N 45°30' W 073°33'0 0.0
2014-Oct-09 19:33N 45°30' W 073°33'10 1.1
2014-Oct-09 10:33N 45°40' W 073°28'7 7.3
2014-Oct-09 09:33N 45°46' W 073°23'8 7.7
2014-Oct-09 08:33N 45°52' W 073°16'  
Track history (hours):
 
Tides and Currents Weather Stations Pressure Air Temp Water Temp Dewpoint Dewpoint Depression Visibility Wind Speed Wind Dir Waves Ship Positions

Grande Mariner

Owner: AMERICAN CANADIAN CARIBBEAN LINE INC, WARREN, RI. More information available from US FCC via Universal Licensing System and Coast Guard Vessel Documentation Center.

Last reported at 2014-Oct-19 04:12 UTC. Time now 2014-Oct-22 03:17 UTC.
Position N 44°03' W 076°25'.

Length 56 m; draft 2 m.

Type: Passenger vessel. MMSI: 369024000.

Date/timePositionNaut miles runAvg speedWind from/ knotsBaromVisibWave heightAir tempDewpointWater temp
2014-Oct-19 04:12N 44°03' W 076°25'6 9.6
2014-Oct-19 03:33N 44°08' W 076°21'124 3.0
2014-Oct-17 10:18N 45°17' W 073°56'2 1.9
2014-Oct-17 09:27N 45°19' W 073°55'6 7.2
2014-Oct-17 08:33N 45°23' W 073°48'8 7.6
2014-Oct-17 07:33N 45°24' W 073°38'5 4.9
2014-Oct-17 06:33N 45°25' W 073°31'5 4.7
2014-Oct-17 05:33N 45°30' W 073°31'2 2.2
2014-Oct-17 04:33N 45°32' W 073°32'1 0.1
2014-Oct-16 16:31N 45°31' W 073°33'7 6.9
2014-Oct-16 15:33N 45°37' W 073°30'8 7.6
2014-Oct-16 14:33N 45°44' W 073°25'8 8.0
2014-Oct-16 13:33N 45°50' W 073°17'34 7.7
2014-Oct-16 09:07N 46°15' W 072°43'5 8.5
2014-Oct-16 08:33N 46°17' W 072°37'8 8.1
2014-Oct-16 07:33N 46°22' W 072°28'8 8.2
2014-Oct-16 06:33N 46°26' W 072°18'  
2014-Oct-13 00:28N 46°26' W 072°19'1111.8
2014-Oct-12 23:34N 46°20' W 072°31'1410.8
2014-Oct-12 22:15N 46°13' W 072°49'2210.8
2014-Oct-12 20:15N 45°58' W 073°12'811.9
2014-Oct-12 19:33N 45°51' W 073°17'1212.1
2014-Oct-12 18:34N 45°41' W 073°27'1211.7
2014-Oct-12 17:33N 45°30' W 073°33'0 0.0
2014-Oct-12 16:33N 45°30' W 073°33'0 0.0
2014-Oct-12 15:33N 45°30' W 073°33'0 0.0
2014-Oct-12 14:33N 45°30' W 073°33'0 0.0
2014-Oct-12 13:33N 45°30' W 073°33'0 0.0
2014-Oct-12 12:33N 45°30' W 073°33'0 0.0
2014-Oct-12 11:33N 45°30' W 073°33'0 0.0
2014-Oct-12 10:33N 45°30' W 073°33'0 0.0
2014-Oct-12 09:33N 45°30' W 073°33'0 0.0
2014-Oct-12 08:33N 45°30' W 073°33'0 0.0
2014-Oct-12 07:33N 45°30' W 073°33'0 0.0
2014-Oct-12 06:33N 45°30' W 073°33'0 0.0
2014-Oct-12 05:33N 45°30' W 073°33'0 0.0
2014-Oct-12 04:30N 45°30' W 073°33'0 0.0
2014-Oct-12 03:33N 45°30' W 073°33'0 0.0
2014-Oct-12 02:33N 45°30' W 073°33'0 0.0
2014-Oct-12 01:33N 45°30' W 073°33'0 0.0
2014-Oct-12 00:33N 45°30' W 073°33'0 0.0
2014-Oct-11 23:33N 45°30' W 073°33'0 0.0
2014-Oct-11 22:33N 45°30' W 073°33'0 0.0
2014-Oct-11 21:33N 45°30' W 073°33'0 0.0
2014-Oct-11 20:33N 45°30' W 073°33'0 0.0
2014-Oct-11 19:33N 45°30' W 073°33'0 0.0
2014-Oct-11 18:33N 45°30' W 073°33'0 0.0
2014-Oct-11 17:33N 45°30' W 073°33'0 0.0
2014-Oct-11 16:33N 45°30' W 073°33'0 0.0
2014-Oct-11 15:33N 45°30' W 073°33'0 0.0
2014-Oct-11 14:30N 45°30' W 073°33'0 0.0
2014-Oct-11 13:33N 45°30' W 073°33'0 0.0
2014-Oct-11 12:33N 45°30' W 073°33'0 0.0
2014-Oct-11 11:33N 45°30' W 073°33'0 0.0
2014-Oct-11 10:33N 45°30' W 073°33'0 0.0
2014-Oct-11 09:33N 45°30' W 073°33'0 0.0
2014-Oct-11 08:33N 45°30' W 073°33'0 0.0
2014-Oct-11 07:33N 45°30' W 073°33'0 0.0
2014-Oct-11 06:33N 45°30' W 073°33'0 0.0
2014-Oct-11 05:33N 45°30' W 073°33'0 0.0
2014-Oct-11 04:33N 45°30' W 073°33'0 0.0
2014-Oct-11 03:33N 45°30' W 073°33'0 0.0
2014-Oct-10 21:33N 45°30' W 073°33'0 0.0
2014-Oct-10 20:33N 45°30' W 073°33'0 0.0
2014-Oct-10 19:33N 45°30' W 073°33'0 0.0
2014-Oct-10 18:33N 45°30' W 073°33'0 0.0
2014-Oct-10 17:33N 45°30' W 073°33'0 0.0
2014-Oct-10 16:33N 45°30' W 073°33'0 0.0
2014-Oct-10 15:33N 45°30' W 073°33'0 0.0
2014-Oct-10 14:33N 45°30' W 073°33'0 0.0
2014-Oct-10 13:33N 45°30' W 073°33'0 0.0
2014-Oct-10 12:33N 45°30' W 073°33'0 0.0
2014-Oct-10 11:33N 45°30' W 073°33'0 0.0
2014-Oct-10 10:33N 45°30' W 073°33'0 0.0
2014-Oct-10 09:33N 45°30' W 073°33'0 0.0
2014-Oct-10 08:33N 45°30' W 073°33'0 0.0
2014-Oct-10 07:33N 45°30' W 073°33'0 0.0
2014-Oct-10 06:33N 45°30' W 073°33'0 0.0
2014-Oct-10 05:33N 45°30' W 073°33'0 0.0
2014-Oct-10 04:33N 45°30' W 073°33'0 0.0
2014-Oct-10 03:33N 45°30' W 073°33'0 0.0
2014-Oct-10 02:33N 45°30' W 073°33'0 0.0
2014-Oct-10 01:33N 45°30' W 073°33'0 0.0
2014-Oct-09 22:09N 45°30' W 073°33'0 0.0
2014-Oct-09 21:33N 45°30' W 073°33'0 0.0
2014-Oct-09 20:33N 45°30' W 073°33'0 0.0
2014-Oct-09 19:33N 45°30' W 073°33'10 1.1
2014-Oct-09 10:33N 45°40' W 073°28'7 7.3
2014-Oct-09 09:33N 45°46' W 073°23'8 7.7
2014-Oct-09 08:33N 45°52' W 073°16'  

Dump ship's entire track history